CheckWX is a tool to help pilots better visualize weather data.  It is not intended as a substitute for an official pre-flight weather briefing.

18:00:26 UTC

LIEE TAF
Cagliari Elmas Airport
Cagliari, Italy
TAF LIEE 241700Z 2418/2518 32008KT CAVOK

Mar-24@
18:00 UTC

Mar-24 @ 18:00 UTC

Mar-25@
18:00 UTC

Mar-25 @ 18:00 UTC

TAF LIEE 241700Z 2418/2518 32008KT CAVOK
Wind
  • 320° at 8 KTS
Conditions
No significant weather
Cloud Levels
  • No significant clouds